Terminal Aerodrome Forecast
Issued by NWS Sterling, VA

Home | Current Version | Previous Version | Text Only | Print | Product List | Glossary On
Versions: 1 2 3 4 5 6 7 8 9 10 11 12 13 14 15 16 17 18 19 20 21 22 23 24 25 26 27 28 29 30
000
FTUS41 KLWX 190857 AAA
TAFDCA
TAF AMD
KDCA 190857Z 1909/2006 32008KT P6SM SCT050 SCT200
     FM191800 28008KT P6SM FEW050 SCT200
     FM200000 VRB04KT P6SM BKN050
     FM200500 VRB04KT P6SM SCT050=

USA.gov is the U.S. government's official web portal to all federal, state and local government web resources and services.